Time;durP1;ratioP1;P1;durP2;ratioP2;P2;SDS_P1;SDS_P2;PMS_P1;PMS_P2;Temp;Humidity;BMP_temperature;BMP_pressure;BME280_temperature;BME280_humidity;BME280_pressure;Samples;Min_cycle;Max_cycle;Signal;HPM_P1;HPM_P2
2022/08/23 00:02:02;;;;;;;8.60;4.82;;;17.00;99.90;;;;;;5064666;28;20055;-81
2022/08/23 00:04:31;;;;;;;6.70;4.53;;;17.00;99.90;;;;;;5095501;28;20600;-78
2022/08/23 00:06:58;;;;;;;9.45;4.40;;;17.00;99.90;;;;;;5069368;28;20036;-80
2022/08/23 00:09:25;;;;;;;8.38;4.50;;;16.90;99.90;;;;;;5079446;28;20496;-79
2022/08/23 00:11:52;;;;;;;9.77;5.25;;;16.90;99.90;;;;;;5068442;28;20036;-79
2022/08/23 00:14:26;;;;;;;11.93;5.25;;;16.90;99.90;;;;;;5065058;28;20059;-79
2022/08/23 00:16:53;;;;;;;12.23;5.20;;;16.80;99.90;;;;;;5096118;27;20036;-79
2022/08/23 00:19:21;;;;;;;7.53;4.90;;;16.80;99.90;;;;;;5065806;28;20044;-79
2022/08/23 00:21:47;;;;;;;10.15;5.47;;;16.90;99.90;;;;;;5068914;28;20627;-79
2022/08/23 00:24:14;;;;;;;11.25;5.93;;;16.80;99.90;;;;;;5064292;28;20048;-79
2022/08/23 00:26:56;;;;;;;13.85;6.20;;;16.80;99.90;;;;;;5085805;28;20129;-79
2022/08/23 00:29:24;;;;;;;7.40;5.43;;;16.90;99.90;;;;;;5068272;28;20054;-80
2022/08/23 00:31:50;;;;;;;14.18;6.70;;;16.80;99.90;;;;;;5066949;28;20044;-80
2022/08/23 00:34:16;;;;;;;12.00;5.65;;;16.80;99.90;;;;;;5064434;28;20373;-80
2022/08/23 00:36:43;;;;;;;11.98;6.22;;;16.80;99.90;;;;;;5067583;28;20044;-79
2022/08/23 00:39:10;;;;;;;9.07;5.85;;;16.70;99.90;;;;;;5069534;28;20426;-78
2022/08/23 00:41:36;;;;;;;7.70;5.80;;;16.80;99.90;;;;;;5070509;28;20044;-78
2022/08/23 00:47:38;;;;;;;10.57;6.57;;;16.70;99.90;;;;;;5094942;27;20044;-79
2022/08/23 00:50:06;;;;;;;14.52;7.65;;;16.70;99.90;;;;;;5081724;28;20769;-80
2022/08/23 00:53:05;;;;;;;11.23;6.38;;;16.60;99.90;;;;;;5067799;28;20404;-80
2022/08/23 00:55:32;;;;;;;14.60;6.13;;;16.60;99.90;;;;;;5062887;28;20487;-79
2022/08/23 00:57:59;;;;;;;12.68;6.55;;;16.60;99.90;;;;;;5068171;28;20054;-79
2022/08/23 01:00:24;;;;;;;8.98;6.25;;;16.60;99.90;;;;;;5064866;28;20071;-80
2022/08/23 01:02:51;;;;;;;11.10;7.30;;;16.60;99.90;;;;;;5063207;28;20654;-80
2022/08/23 01:05:18;;;;;;;8.77;5.60;;;16.60;99.90;;;;;;5085303;28;20123;-80
2022/08/23 01:07:49;;;;;;;7.53;5.38;;;16.60;99.90;;;;;;5063062;28;20047;-79
2022/08/23 01:10:34;;;;;;;6.95;5.47;;;16.50;99.90;;;;;;5062378;28;20050;-80
2022/08/23 01:13:08;;;;;;;7.93;5.93;;;16.50;99.90;;;;;;5068786;28;20048;-79
2022/08/23 01:15:57;;;;;;;7.45;6.05;;;16.40;99.90;;;;;;5061566;28;20051;-79
2022/08/23 01:18:26;;;;;;;10.07;6.65;;;16.30;99.90;;;;;;5095295;28;20059;-80
2022/08/23 01:21:12;;;;;;;10.05;7.30;;;16.20;99.90;;;;;;5066773;28;20505;-79
2022/08/23 01:23:37;;;;;;;;;;;16.20;99.90;;;;;;5065269;28;20043;-79
2022/08/23 01:26:04;;;;;;;;;;;16.30;99.90;;;;;;5067789;28;19920;-78
2022/08/23 01:28:29;;;;;;;9.77;5.13;;;16.20;99.90;;;;;;5063202;28;20540;-78
2022/08/23 01:30:55;;;;;;;8.27;6.30;;;16.20;99.90;;;;;;5064554;28;20067;-78
2022/08/23 01:33:21;;;;;;;11.82;6.93;;;16.20;99.90;;;;;;5093948;27;20480;-78
2022/08/23 01:35:51;;;;;;;12.20;7.80;;;16.10;99.90;;;;;;5063475;28;20074;-79
2022/08/23 01:38:17;;;;;;;12.82;7.88;;;16.10;99.90;;;;;;5061367;28;20043;-81
2022/08/23 01:40:43;;;;;;;14.30;7.18;;;16.00;99.90;;;;;;5067740;28;20086;-79
2022/08/23 01:43:10;;;;;;;12.85;7.07;;;16.00;99.90;;;;;;5068515;28;20781;-79
2022/08/23 01:45:36;;;;;;;12.60;7.60;;;16.00;99.90;;;;;;5070614;28;20079;-79
2022/08/23 01:48:02;;;;;;;7.68;6.47;;;15.90;99.90;;;;;;5078437;28;20458;-78
2022/08/23 01:50:28;;;;;;;12.13;7.35;;;16.00;99.90;;;;;;5062493;28;20032;-79
2022/08/23 01:52:54;;;;;;;13.27;6.50;;;15.90;99.90;;;;;;5063569;28;20062;-78
2022/08/23 01:55:20;;;;;;;12.10;8.23;;;15.90;99.90;;;;;;5095836;28;20366;-79
2022/08/23 01:57:50;;;;;;;8.35;6.18;;;15.80;99.90;;;;;;5049809;28;20041;-78
2022/08/23 02:00:17;;;;;;;8.45;6.10;;;15.90;99.90;;;;;;5092176;27;20044;-79
2022/08/23 02:02:44;;;;;;;11.25;7.88;;;15.60;99.90;;;;;;5065187;28;20511;-80
2022/08/23 02:05:09;;;;;;;15.05;7.75;;;15.60;99.90;;;;;;5080184;28;20040;-79
2022/08/23 02:07:35;;;;;;;15.93;8.52;;;15.60;99.90;;;;;;5094012;28;20037;-79
2022/08/23 02:10:00;;;;;;;10.88;7.68;;;15.60;99.90;;;;;;5063399;28;20121;-79
2022/08/23 02:12:26;;;;;;;7.97;6.25;;;15.60;99.90;;;;;;5062643;28;20163;-79
2022/08/23 02:14:52;;;;;;;6.60;5.93;;;15.60;99.90;;;;;;5063117;28;20047;-79
2022/08/23 02:17:17;;;;;;;8.10;6.22;;;15.60;99.90;;;;;;5066998;28;20411;-79
2022/08/23 02:19:44;;;;;;;9.75;6.90;;;15.60;99.90;;;;;;5065867;28;20051;-79
2022/08/23 02:22:10;;;;;;;6.47;5.78;;;15.50;99.90;;;;;;5063078;28;20122;-80
2022/08/23 02:24:43;;;;;;;7.70;5.50;;;15.40;99.90;;;;;;5083804;28;20043;-79
2022/08/23 02:27:10;;;;;;;10.45;5.70;;;15.30;99.90;;;;;;5092870;28;20040;-80
2022/08/23 02:29:37;;;;;;;8.55;5.63;;;15.30;99.90;;;;;;5063766;28;20039;-80
2022/08/23 02:32:03;;;;;;;9.60;6.20;;;15.20;99.90;;;;;;5063864;28;20201;-78
2022/08/23 02:34:30;;;;;;;29.02;9.90;;;15.20;99.90;;;;;;5064824;28;20097;-79
2022/08/23 02:36:56;;;;;;;43.80;10.75;;;15.20;99.90;;;;;;5095332;28;20047;-81
2022/08/23 02:39:22;;;;;;;11.32;7.65;;;15.00;99.90;;;;;;5063240;28;20040;-78
2022/08/23 02:41:48;;;;;;;9.95;6.85;;;15.00;99.90;;;;;;5073767;28;20118;-78
2022/08/23 02:44:14;;;;;;;8.40;5.82;;;15.00;99.90;;;;;;5092391;28;20043;-79
2022/08/23 02:46:41;;;;;;;9.10;7.82;;;14.90;99.90;;;;;;5063129;28;20398;-79
2022/08/23 02:49:07;;;;;;;6.60;6.03;;;15.10;99.90;;;;;;5092848;27;20151;-78
2022/08/23 02:51:34;;;;;;;6.25;4.85;;;14.90;99.90;;;;;;5062850;28;20036;-79
2022/08/23 02:54:00;;;;;;;6.50;4.13;;;14.90;99.90;;;;;;5062422;28;20076;-79
2022/08/23 02:56:25;;;;;;;35.58;4.85;;;14.90;99.90;;;;;;5083829;28;20036;-79
2022/08/23 02:58:51;;;;;;;36.38;5.45;;;14.90;99.90;;;;;;5067152;28;20412;-81
2022/08/23 03:01:23;;;;;;;6.47;5.88;;;14.90;99.90;;;;;;5065171;28;20040;-79
2022/08/23 03:03:49;;;;;;;14.82;6.07;;;14.80;99.90;;;;;;5063139;28;20075;-81
2022/08/23 03:06:16;;;;;;;23.27;8.25;;;14.80;99.90;;;;;;5059407;28;20079;-79
2022/08/23 03:08:42;;;;;;;5.75;5.35;;;14.70;99.90;;;;;;5078604;28;20902;-78
2022/08/23 03:11:12;;;;;;;5.57;5.18;;;14.80;99.90;;;;;;5077875;28;21896;-78
2022/08/23 03:13:38;;;;;;;5.63;5.22;;;14.80;99.90;;;;;;5045531;28;20055;-80
2022/08/23 03:16:04;;;;;;;6.07;5.57;;;14.60;99.90;;;;;;5060081;28;20041;-79
2022/08/23 03:18:30;;;;;;;5.43;5.03;;;14.60;99.90;;;;;;5060898;28;20082;-80
2022/08/23 03:20:56;;;;;;;10.75;7.07;;;14.50;99.90;;;;;;5065839;28;20086;-80
2022/08/23 03:23:21;;;;;;;7.28;6.60;;;14.40;99.90;;;;;;5076735;28;20040;-79
2022/08/23 03:25:47;;;;;;;8.38;5.97;;;14.30;99.90;;;;;;5066463;28;20048;-79
2022/08/23 03:28:12;;;;;;;5.68;5.15;;;14.20;99.90;;;;;;5064986;28;20079;-79
2022/08/23 03:30:38;;;;;;;4.80;4.35;;;14.20;99.90;;;;;;5067583;28;20122;-79
2022/08/23 03:33:03;;;;;;;9.43;5.32;;;14.20;99.90;;;;;;5066916;28;20093;-79
2022/08/23 03:35:29;;;;;;;5.50;4.65;;;14.10;99.90;;;;;;5066767;28;20048;-79
2022/08/23 03:37:55;;;;;;;6.10;4.63;;;14.20;99.90;;;;;;5065606;28;20042;-78
2022/08/23 03:40:21;;;;;;;10.68;4.63;;;14.20;99.90;;;;;;5068440;28;20067;-81
2022/08/23 03:42:48;;;;;;;4.35;3.28;;;14.20;99.90;;;;;;5073964;28;20044;-79
2022/08/23 03:45:14;;;;;;;5.55;4.30;;;14.10;99.90;;;;;;5099098;28;20056;-79
2022/08/23 03:47:39;;;;;;;8.27;5.15;;;14.10;99.90;;;;;;5062728;28;20036;-79
2022/08/23 03:50:05;;;;;;;9.77;5.70;;;14.10;99.90;;;;;;5066987;28;20086;-81
2022/08/23 03:52:31;;;;;;;5.72;4.65;;;14.10;99.90;;;;;;5088585;28;20031;-78
2022/08/23 03:54:57;;;;;;;6.25;4.32;;;14.10;99.90;;;;;;5086771;28;20040;-79
2022/08/23 03:57:22;;;;;;;6.32;4.97;;;14.00;99.90;;;;;;5065995;28;20059;-79
2022/08/23 03:59:48;;;;;;;14.05;4.72;;;14.00;99.90;;;;;;5068456;28;20040;-78
2022/08/23 04:02:14;;;;;;;6.72;5.07;;;14.00;99.90;;;;;;5063156;28;20031;-79
2022/08/23 04:04:41;;;;;;;12.50;6.20;;;14.00;99.90;;;;;;5062312;28;20040;-78
2022/08/23 04:07:06;;;;;;;7.40;6.70;;;14.10;99.90;;;;;;5066405;28;20086;-79
2022/08/23 04:09:32;;;;;;;7.95;5.30;;;14.20;99.90;;;;;;5068095;28;20040;-80
2022/08/23 04:11:57;;;;;;;6.20;4.13;;;14.20;99.90;;;;;;5096381;27;20044;-79
2022/08/23 04:14:23;;;;;;;4.15;3.65;;;14.30;99.90;;;;;;5066794;28;20045;-79
2022/08/23 04:16:49;;;;;;;9.45;3.88;;;14.30;99.90;;;;;;5067279;28;20040;-79
2022/08/23 04:19:15;;;;;;;7.60;4.93;;;14.30;99.90;;;;;;5093666;27;20040;-79
2022/08/23 04:21:47;;;;;;;6.03;4.03;;;14.40;99.90;;;;;;5064796;28;20043;-79
2022/08/23 04:24:13;;;;;;;5.35;4.20;;;14.40;99.90;;;;;;5082483;28;20036;-79
2022/08/23 04:26:40;;;;;;;5.13;4.18;;;14.30;99.90;;;;;;5062339;28;20093;-79
2022/08/23 04:29:05;;;;;;;7.22;4.05;;;14.30;99.90;;;;;;5062588;28;20032;-79
2022/08/23 04:31:32;;;;;;;7.05;4.05;;;14.20;99.90;;;;;;5064713;28;20075;-79
2022/08/23 04:33:58;;;;;;;4.57;2.80;;;14.20;99.90;;;;;;5094486;27;20072;-79
2022/08/23 04:36:24;;;;;;;3.65;3.22;;;14.30;99.90;;;;;;5066251;28;20123;-79
2022/08/23 04:38:50;;;;;;;3.97;3.47;;;14.20;99.90;;;;;;5062563;28;21065;-79
2022/08/23 04:44:01;;;;;;;4.90;2.60;;;14.30;99.90;;;;;;5065213;28;20305;-79
2022/08/23 04:46:27;;;;;;;5.10;2.92;;;14.20;99.90;;;;;;5062826;28;20036;-78
2022/08/23 04:48:52;;;;;;;7.93;5.13;;;14.30;99.90;;;;;;5062841;28;20037;-79
2022/08/23 04:51:18;;;;;;;7.43;4.75;;;14.30;99.90;;;;;;5078958;28;20093;-79
2022/08/23 04:53:44;;;;;;;10.52;4.00;;;14.40;99.90;;;;;;5082182;28;20086;-79
2022/08/23 04:56:10;;;;;;;8.13;4.55;;;14.40;99.90;;;;;;5080783;28;20100;-79
2022/08/23 04:58:37;;;;;;;6.82;4.35;;;14.40;99.90;;;;;;5078676;28;20123;-79
2022/08/23 05:01:09;;;;;;;5.28;3.70;;;14.50;99.90;;;;;;5063071;28;20423;-79
2022/08/23 05:03:36;;;;;;;5.25;2.63;;;14.50;99.90;;;;;;5039232;28;20044;-78
2022/08/23 05:06:03;;;;;;;8.15;7.40;;;14.50;99.90;;;;;;5091149;27;20086;-79
2022/08/23 05:08:30;;;;;;;9.30;8.23;;;14.50;99.90;;;;;;5077920;28;20048;-79
2022/08/23 05:11:02;;;;;;;8.80;5.82;;;14.60;99.90;;;;;;5063573;28;20039;-79
2022/08/23 05:13:28;;;;;;;10.30;6.68;;;14.80;99.90;;;;;;5069505;28;20101;-79
2022/08/23 05:15:54;;;;;;;12.40;7.60;;;15.40;99.90;;;;;;5082429;28;20062;-78
2022/08/23 05:18:20;;;;;;;8.48;6.07;;;16.20;99.90;;;;;;5061629;28;20040;-82
2022/08/23 05:20:53;;;;;;;6.88;3.25;;;17.00;99.90;;;;;;5069577;28;20039;-83
2022/08/23 05:23:24;;;;;;;5.65;4.18;;;17.80;99.90;;;;;;5089428;28;20451;-82
2022/08/23 05:25:51;;;;;;;12.35;6.22;;;18.60;99.90;;;;;;5085390;28;20060;-82
2022/08/23 05:28:24;;;;;;;8.43;6.82;;;19.50;99.90;;;;;;5071579;28;20055;-82
2022/08/23 05:31:12;;;;;;;8.73;4.68;;;20.30;99.90;;;;;;5089392;28;20070;-79
2022/08/23 05:33:39;;;;;;;6.60;4.65;;;21.00;99.90;;;;;;5091723;28;20492;-80
2022/08/23 05:36:05;;;;;;;9.00;4.93;;;21.50;99.90;;;;;;5059449;28;20048;-80
2022/08/23 05:38:32;;;;;;;5.40;3.90;;;22.20;99.90;;;;;;5085055;28;20035;-81
2022/08/23 05:40:57;;;;;;;12.43;5.45;;;22.90;99.90;;;;;;5049982;28;20043;-80
2022/08/23 05:43:25;;;;;;;7.20;5.03;;;23.50;99.90;;;;;;5062278;28;20040;-80
2022/08/23 05:46:04;;;;;;;7.55;4.95;;;23.90;99.90;;;;;;5059449;28;20507;-81
2022/08/23 05:48:32;;;;;;;6.40;4.32;;;24.40;99.90;;;;;;5059991;28;20039;-80
2022/08/23 05:51:14;;;;;;;10.13;4.80;;;24.60;99.90;;;;;;5060502;28;20036;-80
2022/08/23 05:53:41;;;;;;;13.20;5.22;;;25.10;99.90;;;;;;5090837;27;20048;-79
2022/08/23 05:56:18;;;;;;;10.90;5.30;;;25.80;99.90;;;;;;5067056;28;20039;-80
2022/08/23 05:58:45;;;;;;;10.35;4.95;;;26.10;99.90;;;;;;5058439;28;20036;-81
2022/08/23 06:01:12;;;;;;;12.10;5.03;;;26.30;99.90;;;;;;5061510;28;20044;-80
2022/08/23 06:03:38;;;;;;;6.88;4.60;;;26.90;99.90;;;;;;5059542;28;20040;-81
2022/08/23 06:06:05;;;;;;;5.85;4.10;;;27.20;99.90;;;;;;5072624;28;20040;-80
2022/08/23 06:08:33;;;;;;;8.65;4.18;;;27.50;99.90;;;;;;5055853;28;20067;-82
2022/08/23 06:11:24;;;;;;;6.25;4.63;;;27.80;99.90;;;;;;5086682;28;20423;-81
2022/08/23 06:13:56;;;;;;;10.15;5.13;;;28.30;99.90;;;;;;5079313;28;20122;-83
2022/08/23 06:16:28;;;;;;;7.60;4.75;;;28.90;99.90;;;;;;5053391;28;20547;-80
2022/08/23 06:18:56;;;;;;;7.13;4.10;;;29.30;99.90;;;;;;5064385;28;20028;-80
2022/08/23 06:21:23;;;;;;;9.27;4.40;;;28.80;99.90;;;;;;5070015;28;20115;-82
2022/08/23 06:23:49;;;;;;;8.88;4.32;;;28.80;99.90;;;;;;5085572;28;20662;-79
2022/08/23 06:26:21;;;;;;;8.15;5.15;;;29.10;99.90;;;;;;5054358;28;20178;-80
2022/08/23 06:28:49;;;;;;;5.15;4.40;;;29.00;99.90;;;;;;5052737;28;20039;-79
2022/08/23 06:31:15;;;;;;;8.82;4.68;;;28.80;99.90;;;;;;5069812;28;20632;-79
2022/08/23 06:33:41;;;;;;;8.38;4.05;;;27.80;99.90;;;;;;5079835;28;20036;-82
2022/08/23 06:36:12;;;;;;;9.68;5.95;;;27.10;99.90;;;;;;5048746;28;20032;-82
2022/08/23 06:38:40;;;;;;;6.15;4.35;;;26.60;99.90;;;;;;5051801;28;20031;-81
2022/08/23 06:41:10;;;;;;;7.10;4.80;;;27.10;99.90;;;;;;5069270;28;20041;-80
2022/08/23 06:43:36;;;;;;;6.43;4.55;;;27.80;99.90;;;;;;5097962;28;20120;-80
2022/08/23 06:46:13;;;;;;;7.72;4.15;;;29.00;99.90;;;;;;5065473;28;20036;-80
2022/08/23 06:48:38;;;;;;;7.90;4.40;;;29.30;99.90;;;;;;5044869;28;20039;-80
2022/08/23 06:51:22;;;;;;;5.35;3.88;;;29.30;99.90;;;;;;5065645;28;20036;-81
2022/08/23 06:53:50;;;;;;;7.63;4.38;;;28.90;99.50;;;;;;5063477;28;20047;-80
2022/08/23 06:56:16;;;;;;;4.88;3.65;;;28.60;99.90;;;;;;5098787;28;20059;-79
2022/08/23 06:58:41;;;;;;;7.10;4.50;;;28.30;99.90;;;;;;5059315;28;20040;-80
2022/08/23 07:01:22;;;;;;;7.65;4.28;;;27.90;99.90;;;;;;5094236;28;20071;-79
2022/08/23 07:09:13;;;;;;;8.88;4.30;;;27.70;99.90;;;;;;5076068;28;20146;-81
2022/08/23 07:12:34;;;;;;;8.02;4.30;;;27.60;99.90;;;;;;4996087;28;20044;-83
2022/08/23 07:16:09;;;;;;;7.82;3.45;;;27.70;99.90;;;;;;4875657;28;20803;-82
2022/08/23 07:20:15;;;;;;;5.70;3.50;;;27.80;99.90;;;;;;4933639;28;20055;-82
2022/08/23 07:24:21;;;;;;;5.35;3.88;;;27.90;99.90;;;;;;4987272;28;20080;-81
2022/08/23 07:27:55;;;;;;;5.00;3.90;;;27.80;99.90;;;;;;5009575;28;20141;-81
2022/08/23 07:30:52;;;;;;;8.10;4.20;;;27.50;99.90;;;;;;5006964;28;20061;-81
2022/08/23 07:34:01;;;;;;;9.07;4.50;;;27.30;99.90;;;;;;5056955;28;20075;-81
2022/08/23 07:37:12;;;;;;;6.85;3.58;;;26.90;99.90;;;;;;5084083;28;20039;-81
2022/08/23 07:40:17;;;;;;;6.63;4.05;;;26.40;99.90;;;;;;5084302;28;20047;-81
2022/08/23 07:43:07;;;;;;;7.40;4.10;;;26.10;99.90;;;;;;5079949;28;20129;-81
2022/08/23 07:45:49;;;;;;;6.25;4.15;;;25.70;99.90;;;;;;5095890;28;20046;-81
2022/08/23 07:48:43;;;;;;;9.10;3.90;;;25.30;99.90;;;;;;5081000;28;20094;-81
2022/08/23 07:51:21;;;;;;;;;;;24.90;99.90;;;;;;5070080;28;20035;-82
2022/08/23 07:54:28;;;;;;;8.07;4.60;;;24.80;99.90;;;;;;5100766;28;19916;-81
2022/08/23 07:56:56;;;;;;;9.50;4.65;;;24.80;99.90;;;;;;5043082;28;20808;-79
2022/08/23 07:59:47;;;;;;;8.23;4.05;;;24.50;99.90;;;;;;5095629;28;20044;-80
2022/08/23 08:02:46;;;;;;;8.52;4.20;;;24.60;99.90;;;;;;5052949;28;20075;-81
2022/08/23 08:14:07;;;;;;;8.52;4.30;;;24.50;99.90;;;;;;5080627;28;20059;-82
2022/08/23 08:24:41;;;;;;;10.10;4.53;;;25.20;99.90;;;;;;5062826;28;20069;-80
2022/08/23 08:27:53;;;;;;;6.35;3.90;;;25.50;99.90;;;;;;5071179;28;20048;-84
2022/08/23 08:30:57;;;;;;;7.40;4.57;;;25.50;99.90;;;;;;5055245;28;20047;-80
2022/08/23 08:33:30;;;;;;;7.40;4.78;;;25.70;99.90;;;;;;5086143;28;20198;-81
2022/08/23 08:35:57;;;;;;;9.52;3.83;;;26.30;99.90;;;;;;5105867;27;20047;-81
2022/08/23 08:38:51;;;;;;;9.82;3.83;;;26.00;99.90;;;;;;5054567;28;20032;-82
2022/08/23 08:42:08;;;;;;;9.00;4.28;;;26.10;99.90;;;;;;5081565;28;20055;-81
2022/08/23 08:45:13;;;;;;;6.82;3.78;;;26.10;99.90;;;;;;5075989;28;20028;-81
2022/08/23 08:51:43;;;;;;;5.88;3.55;;;26.30;99.90;;;;;;5090854;28;20042;-81
2022/08/23 08:54:31;;;;;;;7.80;3.20;;;26.30;99.90;;;;;;5082628;28;20039;-85
2022/08/23 09:00:49;;;;;;;6.90;3.40;;;26.30;99.90;;;;;;5084495;28;20037;-79
2022/08/23 09:03:23;;;;;;;4.30;2.85;;;26.50;99.90;;;;;;5084151;28;20040;-80
2022/08/23 09:06:14;;;;;;;8.35;3.55;;;26.40;99.90;;;;;;5051945;28;20500;-83
2022/08/23 09:09:05;;;;;;;6.32;3.35;;;26.50;99.90;;;;;;5096649;27;20043;-83
2022/08/23 09:11:44;;;;;;;4.97;3.03;;;26.60;99.90;;;;;;5062161;28;20044;-81
2022/08/23 09:14:45;;;;;;;5.65;3.45;;;26.70;99.90;;;;;;5080319;28;20121;-81
2022/08/23 09:17:20;;;;;;;4.15;3.03;;;26.60;99.90;;;;;;5045978;28;20129;-81
2022/08/23 09:19:51;;;;;;;6.82;3.40;;;26.90;99.90;;;;;;5085196;28;20032;-81
2022/08/23 09:22:38;;;;;;;9.45;2.80;;;26.80;99.90;;;;;;5046137;28;20558;-83
2022/08/23 09:25:10;;;;;;;8.00;3.33;;;26.70;99.50;;;;;;5055073;28;20050;-81
2022/08/23 09:27:41;;;;;;;6.90;3.90;;;26.80;99.90;;;;;;5104837;28;20047;-81
2022/08/23 09:30:14;;;;;;;7.63;2.95;;;26.80;99.70;;;;;;5070231;28;20088;-81
2022/08/23 09:32:45;;;;;;;4.75;2.88;;;26.80;99.90;;;;;;5064433;28;20048;-81
2022/08/23 09:35:33;;;;;;;5.90;2.50;;;26.90;99.60;;;;;;5090330;28;20044;-81
2022/08/23 09:38:02;;;;;;;7.55;3.63;;;27.10;99.70;;;;;;5066233;28;20044;-84
2022/08/23 09:40:48;;;;;;;10.50;4.32;;;27.20;99.80;;;;;;5070316;28;20118;-83
2022/08/23 09:43:36;;;;;;;7.95;2.67;;;27.40;99.70;;;;;;5087622;28;20050;-83
2022/08/23 09:49:31;;;;;;;4.75;3.47;;;28.00;98.40;;;;;;5031574;28;20124;-83
2022/08/23 09:52:21;;;;;;;;;;;;;;;;;;;;;
2022/08/23 09:55:24;;;;;;;5.95;3.08;;;28.20;98.30;;;;;;5086381;28;20109;-83
2022/08/23 09:58:02;;;;;;;9.57;4.40;;;28.50;98.10;;;;;;5062892;28;20047;-80
2022/08/23 10:00:32;;;;;;;9.20;3.92;;;28.40;97.70;;;;;;5085446;28;20097;-80
2022/08/23 10:03:22;;;;;;;5.45;2.92;;;28.30;97.70;;;;;;5065410;28;20040;-81
2022/08/23 10:05:58;;;;;;;5.68;3.03;;;28.30;97.60;;;;;;5062322;28;20165;-80
2022/08/23 10:08:27;;;;;;;5.50;2.22;;;28.50;97.40;;;;;;5068360;28;20035;-81
2022/08/23 10:11:00;;;;;;;7.32;2.25;;;28.40;96.80;;;;;;5080022;28;20077;-80
2022/08/23 10:13:25;;;;;;;7.78;2.60;;;28.50;97.10;;;;;;5053759;28;20032;-79
2022/08/23 10:15:55;;;;;;;4.38;2.40;;;28.70;96.90;;;;;;5058537;28;20149;-79
2022/08/23 10:19:16;;;;;;;7.63;2.60;;;28.80;97.30;;;;;;5067598;28;20055;-83
2022/08/23 10:22:26;;;;;;;4.53;2.40;;;28.90;97.40;;;;;;5068149;28;20040;-81
2022/08/23 10:25:51;;;;;;;5.20;2.55;;;29.00;97.00;;;;;;5049296;28;20165;-81
2022/08/23 10:32:10;;;;;;;3.80;1.80;;;29.00;96.20;;;;;;5088683;28;20047;-84
2022/08/23 10:50:29;;;;;;;7.20;3.22;;;28.70;95.90;;;;;;5062328;28;20035;-84
2022/08/23 11:01:18;;;;;;;5.50;2.05;;;29.00;94.10;;;;;;5037850;28;20063;-82
2022/08/23 11:04:06;;;;;;;7.63;2.50;;;29.20;94.90;;;;;;5027434;28;20080;-82
2022/08/23 11:06:34;;;;;;;5.57;1.92;;;28.80;94.40;;;;;;5017864;28;20063;-81
2022/08/23 11:09:09;;;;;;;5.30;2.20;;;29.00;95.00;;;;;;5009380;28;20091;-81
2022/08/23 11:11:49;;;;;;;11.68;2.75;;;29.20;95.30;;;;;;5033589;28;20044;-81
2022/08/23 11:14:30;;;;;;;5.68;2.05;;;29.50;95.20;;;;;;5046205;28;20048;-80
2022/08/23 11:17:01;;;;;;;4.00;2.17;;;29.70;95.10;;;;;;5064638;28;20044;-80
2022/08/23 11:19:46;;;;;;;6.85;2.03;;;29.60;94.60;;;;;;5085898;28;20044;-81
2022/08/23 11:22:56;;;;;;;7.10;1.88;;;29.50;94.50;;;;;;5099847;28;20127;-81
2022/08/23 11:25:22;;;;;;;5.63;2.05;;;29.60;93.60;;;;;;5048636;28;20128;-80
2022/08/23 11:27:48;;;;;;;10.93;2.28;;;29.30;92.20;;;;;;5063774;28;20508;-80
2022/08/23 11:30:32;;;;;;;6.00;1.80;;;29.20;92.70;;;;;;5064965;28;20125;-80
2022/08/23 11:33:33;;;;;;;6.20;1.90;;;29.30;93.60;;;;;;5061143;28;20154;-80
2022/08/23 11:36:08;;;;;;;5.57;1.65;;;29.50;92.50;;;;;;5067257;28;20043;-81
2022/08/23 11:38:42;;;;;;;9.05;2.30;;;29.70;92.70;;;;;;5063927;28;20044;-82
2022/08/23 11:41:23;;;;;;;6.65;1.75;;;29.80;92.60;;;;;;5102817;28;20048;-81
2022/08/23 11:43:54;;;;;;;6.35;1.92;;;29.90;92.30;;;;;;5087669;28;20044;-80
2022/08/23 11:46:26;;;;;;;9.15;1.92;;;29.90;93.10;;;;;;5071935;28;20064;-82
2022/08/23 11:49:01;;;;;;;9.18;2.22;;;30.10;92.50;;;;;;5102421;27;20093;-80
2022/08/23 11:51:54;;;;;;;4.32;1.55;;;30.50;92.50;;;;;;5088790;28;20369;-81
2022/08/23 11:54:43;;;;;;;7.05;1.77;;;30.40;91.40;;;;;;5071347;28;20901;-80
2022/08/23 11:57:43;;;;;;;8.82;1.58;;;30.40;91.40;;;;;;5050072;28;20051;-81
2022/08/23 12:00:53;;;;;;;5.55;1.83;;;30.30;92.30;;;;;;5068767;28;20048;-81
2022/08/23 12:03:32;;;;;;;7.97;1.90;;;30.20;91.60;;;;;;5072656;28;20553;-80
2022/08/23 12:06:07;;;;;;;7.25;1.90;;;30.10;90.90;;;;;;5073556;28;20032;-80
2022/08/23 12:08:50;;;;;;;;;;;30.10;91.70;;;;;;5085252;28;20040;-82
2022/08/23 12:11:18;;;;;;;4.28;1.75;;;30.00;91.90;;;;;;5071949;28;20295;-80
2022/08/23 12:14:12;;;;;;;4.90;1.90;;;30.10;91.60;;;;;;5068143;28;20096;-81
2022/08/23 12:16:38;;;;;;;5.32;1.30;;;30.20;91.80;;;;;;5068039;28;20044;-81
2022/08/23 12:19:09;;;;;;;14.15;2.45;;;30.40;91.90;;;;;;5075728;28;20046;-81
2022/08/23 12:21:38;;;;;;;4.47;1.50;;;30.50;91.30;;;;;;5068448;28;20076;-82
2022/08/23 12:24:38;;;;;;;;;;;;;;;;;;;;;
2022/08/23 12:27:31;;;;;;;10.35;2.10;;;30.90;90.90;;;;;;5070775;28;20042;-81
2022/08/23 12:30:17;;;;;;;8.88;1.80;;;31.00;90.10;;;;;;5070666;28;20036;-82
2022/08/23 12:33:15;;;;;;;5.85;1.70;;;31.10;91.00;;;;;;5069090;28;20393;-81
2022/08/23 12:36:32;;;;;;;3.67;1.60;;;31.10;89.10;;;;;;5071253;28;20047;-81
2022/08/23 12:39:35;;;;;;;3.90;2.00;;;30.70;90.00;;;;;;5009407;28;20610;-83
2022/08/23 12:42:23;;;;;;;3.72;1.60;;;30.60;88.80;;;;;;5013441;28;20048;-81
2022/08/23 12:45:16;;;;;;;5.50;1.65;;;30.50;88.60;;;;;;5070449;28;20163;-82
2022/08/23 12:48:00;;;;;;;5.15;1.67;;;30.60;90.20;;;;;;5087713;28;20062;-81
2022/08/23 12:50:39;;;;;;;7.78;1.92;;;30.50;86.70;;;;;;5069012;28;20036;-81
2022/08/23 12:53:51;;;;;;;3.38;1.83;;;30.40;88.40;;;;;;5086306;28;20083;-82
2022/08/23 12:56:32;;;;;;;9.18;1.88;;;30.40;90.00;;;;;;5045038;28;20052;-82
2022/08/23 12:59:32;;;;;;;3.53;1.60;;;30.50;89.30;;;;;;5083979;28;20515;-81
2022/08/23 13:02:05;;;;;;;7.38;2.38;;;30.10;88.20;;;;;;5062883;28;20132;-82
2022/08/23 13:04:32;;;;;;;4.97;1.85;;;30.00;89.60;;;;;;5073662;28;20044;-81
2022/08/23 13:07:25;;;;;;;6.03;2.03;;;29.80;90.20;;;;;;5096745;28;20127;-82
2022/08/23 13:09:51;;;;;;;4.88;1.50;;;29.60;89.80;;;;;;5087900;28;20048;-81
2022/08/23 13:12:17;;;;;;;6.47;2.50;;;29.50;90.50;;;;;;5071710;28;20054;-81
2022/08/23 13:14:49;;;;;;;3.65;1.75;;;29.50;90.10;;;;;;5051816;28;20044;-82
2022/08/23 13:17:38;;;;;;;7.80;2.45;;;29.50;89.60;;;;;;5069245;28;20044;-82
2022/08/23 13:20:21;;;;;;;8.20;1.83;;;29.50;89.70;;;;;;5056104;28;20101;-81
2022/08/23 13:22:59;;;;;;;3.45;1.70;;;29.40;88.10;;;;;;5085745;28;20044;-81
2022/08/23 13:25:40;;;;;;;5.18;2.28;;;29.40;89.80;;;;;;5080685;28;20052;-82
2022/08/23 13:28:28;;;;;;;5.07;2.05;;;29.30;88.00;;;;;;5068429;28;20548;-83
2022/08/23 13:31:04;;;;;;;6.25;1.70;;;29.30;90.10;;;;;;5084178;28;20040;-81
2022/08/23 13:33:30;;;;;;;6.95;1.77;;;29.40;89.90;;;;;;5068627;28;20048;-82
2022/08/23 13:36:13;;;;;;;4.13;2.00;;;29.60;89.60;;;;;;5086274;28;20040;-83
2022/08/23 13:38:40;;;;;;;7.05;1.55;;;29.50;89.60;;;;;;5052828;28;20044;-81
2022/08/23 13:41:09;;;;;;;5.55;2.20;;;29.60;89.80;;;;;;5070804;28;20068;-81
2022/08/23 13:43:38;;;;;;;3.90;1.23;;;29.60;89.50;;;;;;5066922;28;20866;-81
2022/08/23 13:46:26;;;;;;;4.43;1.83;;;29.50;89.20;;;;;;5067778;28;20063;-81
2022/08/23 13:49:04;;;;;;;4.90;1.80;;;29.50;91.00;;;;;;5082511;28;20044;-83
2022/08/23 13:51:33;;;;;;;3.72;1.63;;;29.60;90.30;;;;;;5066459;28;20039;-81
2022/08/23 13:54:02;;;;;;;5.97;2.33;;;29.60;90.40;;;;;;5053137;28;20093;-81
2022/08/23 13:56:38;;;;;;;5.90;1.90;;;29.70;90.50;;;;;;5066500;28;20125;-84
2022/08/23 13:59:16;;;;;;;6.00;2.03;;;29.80;90.60;;;;;;5069912;28;20395;-82
2022/08/23 14:13:50;;;;;;;4.68;1.63;;;29.90;88.80;;;;;;5081946;28;20055;-84
2022/08/23 14:22:56;;;;;;;5.82;2.47;;;30.10;87.80;;;;;;5006888;28;20409;-82
2022/08/23 14:32:13;;;;;;;4.47;2.10;;;30.30;88.00;;;;;;5054772;28;20043;-81
2022/08/23 14:38:20;;;;;;;5.35;2.03;;;30.50;86.80;;;;;;5034998;28;20137;-80
2022/08/23 14:41:20;;;;;;;5.65;2.03;;;30.50;86.50;;;;;;5023876;28;20041;-79
2022/08/23 14:44:06;;;;;;;4.45;1.80;;;30.50;88.10;;;;;;5011077;28;20128;-80
2022/08/23 14:47:05;;;;;;;4.78;2.33;;;30.40;86.10;;;;;;5026857;28;20088;-81
2022/08/23 14:49:55;;;;;;;;;;;;;;;;;;;;;
2022/08/23 14:53:01;;;;;;;6.93;2.22;;;30.50;86.50;;;;;;5025752;28;20049;-81
2022/08/23 14:56:14;;;;;;;8.10;2.65;;;30.50;88.10;;;;;;4993902;28;20147;-81
2022/08/23 15:03:04;;;;;;;8.57;2.35;;;30.20;85.30;;;;;;5044753;28;20126;-82
2022/08/23 15:06:49;;;;;;;7.53;1.90;;;30.10;88.10;;;;;;5017521;28;20067;-81
2022/08/23 15:09:14;;;;;;;3.95;1.88;;;30.00;89.10;;;;;;4928323;28;20066;-82
2022/08/23 15:12:21;;;;;;;9.35;2.25;;;30.00;87.80;;;;;;4945480;28;20043;-81
2022/08/23 15:15:49;;;;;;;10.13;2.38;;;29.90;86.90;;;;;;4945192;28;20055;-82
2022/08/23 15:19:16;;;;;;;6.32;2.25;;;29.90;88.50;;;;;;4850420;29;20053;-82
2022/08/23 15:22:19;;;;;;;12.85;2.38;;;29.80;86.30;;;;;;4869244;29;20402;-78